Time;durP1;ratioP1;P1;durP2;ratioP2;P2;SDS_P1;SDS_P2;PMS_P1;PMS_P2;Temp;Humidity;BMP_temperature;BMP_pressure;BME280_temperature;BME280_humidity;BME280_pressure;Samples;Min_cycle;Max_cycle;Signal;HPM_P1;HPM_P2
2022/05/14 00:00:43;;;;;;;;;;;;;;;;;;5074738;28;19913;-74
2022/05/14 00:03:09;;;;;;;;;;;;;;;;;;5075276;28;19912;-74
2022/05/14 00:05:35;;;;;;;;;;;;;;;;;;5075178;28;20053;-76
2022/05/14 00:08:00;;;;;;;;;;;;;;;;;;5075043;28;20286;-74
2022/05/14 00:10:26;;;;;;;;;;;;;;;;;;5074684;28;19916;-75
2022/05/14 00:13:04;;;;;;;;;;;;;;;;;;5075016;28;19913;-74
2022/05/14 00:15:30;;;;;;;;;;;;;;;;;;5075042;28;20374;-75
2022/05/14 00:17:56;;;;;;;;;;;;;;;;;;5074931;28;19970;-75
2022/05/14 00:20:23;;;;;;;;;;;;;;;;;;5074548;28;20007;-74
2022/05/14 00:22:49;;;;;;;;;;;;;;;;;;5074903;28;19922;-75
2022/05/14 00:25:15;;;;;;;;;;;;;;;;;;5076122;28;20262;-74
2022/05/14 00:27:41;;;;;;;;;;;;;;;;;;5074544;28;19913;-69
2022/05/14 00:30:07;;;;;;;;;;;;;;;;;;5074221;28;19908;-71
2022/05/14 00:32:33;;;;;;;;;;;;;;;;;;5074670;28;19908;-71
2022/05/14 00:34:59;;;;;;;;;;;;;;;;;;5074717;28;19909;-70
2022/05/14 00:37:25;;;;;;;;;;;;;;;;;;5074780;28;19916;-70
2022/05/14 00:39:50;;;;;;;;;;;;;;;;;;5073999;28;19916;-69
2022/05/14 00:42:16;;;;;;;;;;;;;;;;;;5074542;28;19916;-71
2022/05/14 00:44:42;;;;;;;;;;;;;;;;;;5074440;28;19913;-72
2022/05/14 00:47:08;;;;;;;;;;;;;;;;;;5074419;28;19908;-72
2022/05/14 00:49:34;;;;;;;;;;;;;;;;;;5073932;28;20431;-72
2022/05/14 00:52:00;;;;;;;;;;;;;;;;;;5074487;28;20056;-72
2022/05/14 00:54:26;;;;;;;;;;;;;;;;;;5074447;28;19913;-71
2022/05/14 00:56:52;;;;;;;;;;;;;;;;;;5073692;28;20349;-71
2022/05/14 00:59:18;;;;;;;;;;;;;;;;;;5075069;28;19908;-72
2022/05/14 01:01:44;;;;;;;;;;;;;;;;;;5074030;28;19919;-71
2022/05/14 01:04:10;;;;;;;;;;;;;;;;;;5073958;28;20404;-71
2022/05/14 01:06:36;;;;;;;;;;;;;;;;;;5074049;28;19925;-70
2022/05/14 01:09:04;;;;;;;;;;;;;;;;;;5073532;28;19909;-70
2022/05/14 01:11:30;;;;;;;;;;;;;;;;;;5073946;28;19908;-71
2022/05/14 01:13:56;;;;;;;;;;;;;;;;;;5073780;28;19915;-70
2022/05/14 01:16:22;;;;;;;;;;;;;;;;;;5073920;28;19913;-69
2022/05/14 01:18:49;;;;;;;;;;;;;;;;;;5073366;28;20056;-70
2022/05/14 01:21:14;;;;;;;;;;;;;;;;;;5073752;28;19912;-70
2022/05/14 01:26:28;;;;;;;;;;;;;;;;;;5075172;28;19915;-70
2022/05/14 01:28:54;;;;;;;;;;;;;;;;;;5074285;28;20361;-69
2022/05/14 01:31:20;;;;;;;;;;;;;;;;;;5073774;28;19915;-70
2022/05/14 01:33:46;;;;;;;;;;;;;;;;;;5073563;28;19920;-70
2022/05/14 01:36:12;;;;;;;;;;;;;;;;;;5073587;28;19912;-70
2022/05/14 01:38:38;;;;;;;;;;;;;;;;;;5072935;28;19944;-70
2022/05/14 01:41:04;;;;;;;;;;;;;;;;;;5073236;28;20369;-70
2022/05/14 01:43:29;;;;;;;;;;;;;;;;;;5073520;28;19909;-72
2022/05/14 01:45:55;;;;;;;;;;;;;;;;;;5073150;28;19909;-73
2022/05/14 01:48:21;;;;;;;;;;;;;;;;;;5073063;28;19912;-74
2022/05/14 01:50:47;;;;;;;;;;;;;;;;;;5072792;28;19908;-72
2022/05/14 01:53:13;;;;;;;;;;;;;;;;;;5073178;28;19992;-75
2022/05/14 01:55:39;;;;;;;;;;;;;;;;;;5073034;28;19912;-73
2022/05/14 01:58:36;;;;;;;;;;;;;;;;;;5072990;28;19966;-73
2022/05/14 02:00:51;;;;;;;;;;;;;;;;;;5073943;28;19955;-74
2022/05/14 02:03:16;;;;;;;;;;;;;;;;;;5073258;28;19909;-74
2022/05/14 02:05:42;;;;;;;;;;;;;;;;;;5072987;28;19912;-73
2022/05/14 02:08:08;;;;;;;;;;;;;;;;;;5072090;28;19908;-70
2022/05/14 02:10:34;;;;;;;;;;;;;;;;;;5072405;28;19909;-72
2022/05/14 02:13:00;;;;;;;;;;;;;;;;;;5072707;28;19951;-73
2022/05/14 02:15:26;;;;;;;;;;;;;;;;;;5073052;28;19909;-72
2022/05/14 02:17:52;;;;;;;;;;;;;;;;;;5073920;28;20406;-74
2022/05/14 02:20:18;;;;;;;;;;;;;;;;;;5072227;28;19956;-73
2022/05/14 02:22:44;;;;;;;;;;;;;;;;;;5072660;28;20377;-72
2022/05/14 02:25:10;;;;;;;;;;;;;;;;;;5072774;28;19915;-74
2022/05/14 02:27:36;;;;;;;;;;;;;;;;;;5073756;28;19995;-74
2022/05/14 02:30:02;;;;;;;;;;;;;;;;;;5072152;28;19919;-74
2022/05/14 02:32:28;;;;;;;;;;;;;;;;;;5072845;28;19931;-74
2022/05/14 02:34:54;;;;;;;;;;;;;;;;;;5072679;28;19948;-74
2022/05/14 02:37:20;;;;;;;;;;;;;;;;;;5072825;28;19995;-75
2022/05/14 02:39:46;;;;;;;;;;;;;;;;;;5072007;28;19959;-74
2022/05/14 02:42:12;;;;;;;;;;;;;;;;;;5072596;28;19916;-75
2022/05/14 02:44:38;;;;;;;;;;;;;;;;;;5072559;28;19909;-74
2022/05/14 02:47:04;;;;;;;;;;;;;;;;;;5072673;28;19908;-74
2022/05/14 02:49:29;;;;;;;;;;;;;;;;;;5072082;28;19909;-74
2022/05/14 02:51:55;;;;;;;;;;;;;;;;;;5072444;28;19916;-73
2022/05/14 02:54:21;;;;;;;;;;;;;;;;;;5072711;28;19969;-72
2022/05/14 02:56:47;;;;;;;;;;;;;;;;;;5072541;28;19908;-71
2022/05/14 02:59:13;;;;;;;;;;;;;;;;;;5071969;28;19999;-72
2022/05/14 03:01:47;;;;;;;;;;;;;;;;;;5072306;28;20350;-71
2022/05/14 03:04:13;;;;;;;;;;;;;;;;;;5072489;28;19909;-75
2022/05/14 03:06:39;;;;;;;;;;;;;;;;;;5072423;28;19931;-76
2022/05/14 03:09:05;;;;;;;;;;;;;;;;;;5071875;28;19909;-76
2022/05/14 03:11:32;;;;;;;;;;;;;;;;;;5072497;28;19974;-77
2022/05/14 03:13:57;;;;;;;;;;;;;;;;;;5072295;28;20300;-76
2022/05/14 03:16:23;;;;;;;;;;;;;;;;;;5072364;28;19912;-77
2022/05/14 03:18:49;;;;;;;;;;;;;;;;;;5073003;28;19909;-77
2022/05/14 03:21:15;;;;;;;;;;;;;;;;;;5076167;28;20037;-77
2022/05/14 03:23:41;;;;;;;;;;;;;;;;;;5076100;28;20353;-77
2022/05/14 03:26:07;;;;;;;;;;;;;;;;;;5076241;28;19959;-76
2022/05/14 03:28:33;;;;;;;;;;;;;;;;;;5075517;28;20014;-74
2022/05/14 03:30:59;;;;;;;;;;;;;;;;;;5075988;28;19916;-74
2022/05/14 03:33:25;;;;;;;;;;;;;;;;;;5076105;28;19909;-74
2022/05/14 03:35:51;;;;;;;;;;;;;;;;;;5075827;28;19915;-74
2022/05/14 03:38:17;;;;;;;;;;;;;;;;;;5075899;28;19908;-74
2022/05/14 03:40:42;;;;;;;;;;;;;;;;;;5075339;28;19917;-73
2022/05/14 03:43:08;;;;;;;;;;;;;;;;;;5075944;28;20011;-73
2022/05/14 03:45:34;;;;;;;;;;;;;;;;;;5075608;28;19922;-70
2022/05/14 03:48:00;;;;;;;;;;;;;;;;;;5075558;28;19978;-74
2022/05/14 03:50:26;;;;;;;;;;;;;;;;;;5075238;28;19908;-74
2022/05/14 03:52:52;;;;;;;;;;;;;;;;;;5075448;28;19915;-75
2022/05/14 03:55:18;;;;;;;;;;;;;;;;;;5075534;28;19908;-73
2022/05/14 03:57:44;;;;;;;;;;;;;;;;;;5075360;28;19908;-71
2022/05/14 04:00:11;;;;;;;;;;;;;;;;;;5074792;28;20008;-72
2022/05/14 04:02:37;;;;;;;;;;;;;;;;;;5075423;28;19908;-73
2022/05/14 04:05:03;;;;;;;;;;;;;;;;;;5075435;28;19908;-74
2022/05/14 04:07:30;;;;;;;;;;;;;;;;;;5075328;28;19915;-74
2022/05/14 04:09:56;;;;;;;;;;;;;;;;;;5074773;28;20007;-74
2022/05/14 04:12:22;;;;;;;;;;;;;;;;;;5075303;28;19947;-75
2022/05/14 04:14:48;;;;;;;;;;;;;;;;;;5075173;28;19915;-75
2022/05/14 04:17:14;;;;;;;;;;;;;;;;;;5075140;28;19908;-76
2022/05/14 04:19:39;;;;;;;;;;;;;;;;;;5074502;28;20273;-76
2022/05/14 04:22:05;;;;;;;;;;;;;;;;;;5075020;28;19916;-77
2022/05/14 04:24:32;;;;;;;;;;;;;;;;;;5075007;28;19908;-76
2022/05/14 04:26:58;;;;;;;;;;;;;;;;;;5074928;28;19915;-73
2022/05/14 04:29:24;;;;;;;;;;;;;;;;;;5074267;28;20280;-73
2022/05/14 04:31:50;;;;;;;;;;;;;;;;;;5073895;28;20021;-72
2022/05/14 04:34:18;;;;;;;;;;;;;;;;;;5074822;28;19908;-73
2022/05/14 04:36:43;;;;;;;;;;;;;;;;;;5074754;28;20380;-73
2022/05/14 04:39:09;;;;;;;;;;;;;;;;;;5074158;28;19908;-73
2022/05/14 04:41:35;;;;;;;;;;;;;;;;;;5074392;28;19912;-73
2022/05/14 04:44:01;;;;;;;;;;;;;;;;;;5074656;28;19970;-74
2022/05/14 04:46:27;;;;;;;;;;;;;;;;;;5074584;28;19916;-73
2022/05/14 04:48:53;;;;;;;;;;;;;;;;;;5073936;28;20381;-72
2022/05/14 04:51:19;;;;;;;;;;;;;;;;;;5074627;28;20376;-74
2022/05/14 04:53:45;;;;;;;;;;;;;;;;;;5074470;28;19905;-74
2022/05/14 04:56:11;;;;;;;;;;;;;;;;;;5074313;28;19974;-75
2022/05/14 04:58:37;;;;;;;;;;;;;;;;;;5073821;28;19957;-75
2022/05/14 05:01:03;;;;;;;;;;;;;;;;;;5074152;28;19916;-74
2022/05/14 05:03:29;;;;;;;;;;;;;;;;;;5074323;28;19948;-74
2022/05/14 05:05:55;;;;;;;;;;;;;;;;;;5074426;28;20388;-73
2022/05/14 05:08:20;;;;;;;;;;;;;;;;;;5074125;28;20361;-74
2022/05/14 05:10:46;;;;;;;;;;;;;;;;;;5075360;28;19962;-75
2022/05/14 05:13:12;;;;;;;;;;;;;;;;;;5074151;28;19922;-75
2022/05/14 05:15:38;;;;;;;;;;;;;;;;;;5074086;28;19915;-74
2022/05/14 05:18:04;;;;;;;;;;;;;;;;;;5073838;28;20284;-80
2022/05/14 05:20:30;;;;;;;;;;;;;;;;;;5073559;28;19966;-74
2022/05/14 05:22:56;;;;;;;;;;;;;;;;;;5073866;28;19909;-73
2022/05/14 05:25:22;;;;;;;;;;;;;;;;;;5073951;28;19948;-75
2022/05/14 05:27:48;;;;;;;;;;;;;;;;;;5073566;28;19920;-73
2022/05/14 05:30:13;;;;;;;;;;;;;;;;;;5073236;28;19909;-73
2022/05/14 05:32:40;;;;;;;;;;;;;;;;;;5073626;28;19915;-73
2022/05/14 05:35:06;;;;;;;;;;;;;;;;;;5073648;28;20609;-72
2022/05/14 05:37:32;;;;;;;;;;;;;;;;;;5073478;28;19948;-71
2022/05/14 05:39:58;;;;;;;;;;;;;;;;;;5072874;28;19916;-72
2022/05/14 05:42:24;;;;;;;;;;;;;;;;;;5073554;28;19909;-70
2022/05/14 05:44:50;;;;;;;;;;;;;;;;;;5073347;28;20379;-72
2022/05/14 05:47:16;;;;;;;;;;;;;;;;;;5073252;28;19916;-69
2022/05/14 05:49:42;;;;;;;;;;;;;;;;;;5072513;28;20269;-72
2022/05/14 05:52:08;;;;;;;;;;;;;;;;;;5072904;28;19908;-72
2022/05/14 05:57:19;;;;;;;;;;;;;;;;;;5074197;28;20032;-74
2022/05/14 05:59:45;;;;;;;;;;;;;;;;;;5072337;28;19951;-73
2022/05/14 06:02:11;;;;;;;;;;;;;;;;;;5073268;28;19916;-72
2022/05/14 06:04:38;;;;;;;;;;;;;;;;;;5073120;28;20359;-73
2022/05/14 06:07:03;;;;;;;;;;;;;;;;;;5073058;28;19982;-74
2022/05/14 06:09:30;;;;;;;;;;;;;;;;;;5072451;28;19922;-74
2022/05/14 06:11:58;;;;;;;;;;;;;;;;;;5073099;28;19913;-74
2022/05/14 06:14:25;;;;;;;;;;;;;;;;;;5072994;28;19932;-74
2022/05/14 06:16:52;;;;;;;;;;;;;;;;;;5072765;28;19955;-72
2022/05/14 06:19:17;;;;;;;;;;;;;;;;;;5072409;28;19935;-71
2022/05/14 06:21:43;;;;;;;;;;;;;;;;;;5073005;28;19918;-71
2022/05/14 06:24:09;;;;;;;;;;;;;;;;;;5072719;28;20416;-73
2022/05/14 06:26:36;;;;;;;;;;;;;;;;;;5072841;28;19908;-73
2022/05/14 06:29:02;;;;;;;;;;;;;;;;;;5072164;28;19916;-75
2022/05/14 06:31:28;;;;;;;;;;;;;;;;;;5072853;28;19909;-71
2022/05/14 06:33:54;;;;;;;;;;;;;;;;;;5072898;28;19912;-70
2022/05/14 06:36:20;;;;;;;;;;;;;;;;;;5072636;28;19919;-72
2022/05/14 06:38:46;;;;;;;;;;;;;;;;;;5073395;28;20364;-72
2022/05/14 06:41:12;;;;;;;;;;;;;;;;;;5072474;28;19966;-72
2022/05/14 06:43:38;;;;;;;;;;;;;;;;;;5072610;28;19954;-72
2022/05/14 06:46:04;;;;;;;;;;;;;;;;;;5072646;28;19908;-71
2022/05/14 06:48:30;;;;;;;;;;;;;;;;;;5072183;28;19909;-72
2022/05/14 06:50:56;;;;;;;;;;;;;;;;;;5072466;28;19909;-71
2022/05/14 06:53:22;;;;;;;;;;;;;;;;;;5072030;28;19908;-71
2022/05/14 06:55:48;;;;;;;;;;;;;;;;;;5072194;28;19917;-71
2022/05/14 06:58:14;;;;;;;;;;;;;;;;;;5072424;28;19909;-71
2022/05/14 07:00:40;;;;;;;;;;;;;;;;;;5071845;28;19916;-71
2022/05/14 07:08:35;;;;;;;;;;;;;;;;;;5073255;28;19991;-72
2022/05/14 07:11:01;;;;;;;;;;;;;;;;;;5072437;28;19952;-71
2022/05/14 07:13:27;;;;;;;;;;;;;;;;;;5072328;28;20379;-71
2022/05/14 07:15:53;;;;;;;;;;;;;;;;;;5072394;28;19919;-73
2022/05/14 07:18:19;;;;;;;;;;;;;;;;;;5071647;28;19916;-72
2022/05/14 07:20:45;;;;;;;;;;;;;;;;;;5071470;28;19919;-72
2022/05/14 07:23:10;;;;;;;;;;;;;;;;;;5072122;28;19908;-72
2022/05/14 07:25:36;;;;;;;;;;;;;;;;;;5071980;28;19932;-72
2022/05/14 07:28:02;;;;;;;;;;;;;;;;;;5071820;28;19920;-72
2022/05/14 07:30:28;;;;;;;;;;;;;;;;;;5071714;28;19913;-72
2022/05/14 07:32:54;;;;;;;;;;;;;;;;;;5072108;28;19908;-71
2022/05/14 07:35:20;;;;;;;;;;;;;;;;;;5072053;28;20050;-72
2022/05/14 07:37:46;;;;;;;;;;;;;;;;;;5071881;28;19909;-73
2022/05/14 07:40:12;;;;;;;;;;;;;;;;;;5071393;28;20342;-71
2022/05/14 07:42:37;;;;;;;;;;;;;;;;;;5072011;28;19909;-71
2022/05/14 07:45:03;;;;;;;;;;;;;;;;;;5072061;28;19976;-72
2022/05/14 07:47:29;;;;;;;;;;;;;;;;;;5071728;28;20007;-72
2022/05/14 07:49:55;;;;;;;;;;;;;;;;;;5071231;28;19915;-72
2022/05/14 07:52:21;;;;;;;;;;;;;;;;;;5072030;28;19912;-71
2022/05/14 07:54:47;;;;;;;;;;;;;;;;;;5071681;28;19916;-71
2022/05/14 07:57:13;;;;;;;;;;;;;;;;;;5071787;28;19962;-71
2022/05/14 07:59:39;;;;;;;;;;;;;;;;;;5071313;28;20356;-72
2022/05/14 08:02:05;;;;;;;;;;;;;;;;;;5071764;28;19951;-71
2022/05/14 08:04:31;;;;;;;;;;;;;;;;;;5071547;28;19909;-71
2022/05/14 08:06:57;;;;;;;;;;;;;;;;;;5074356;28;19916;-71
2022/05/14 08:09:23;;;;;;;;;;;;;;;;;;5074236;28;19912;-71
2022/05/14 08:11:50;;;;;;;;;;;;;;;;;;5072974;28;19913;-71
2022/05/14 08:14:15;;;;;;;;;;;;;;;;;;5073051;28;19912;-70
2022/05/14 08:16:41;;;;;;;;;;;;;;;;;;5072911;28;20372;-71
2022/05/14 08:19:07;;;;;;;;;;;;;;;;;;5072414;28;19913;-71
2022/05/14 08:24:30;;;;;;;;;;;;;;;;;;5074368;28;19915;-72
2022/05/14 08:26:56;;;;;;;;;;;;;;;;;;5074927;28;20008;-72
2022/05/14 08:29:22;;;;;;;;;;;;;;;;;;5074299;28;19954;-73
2022/05/14 08:31:49;;;;;;;;;;;;;;;;;;5074776;28;19935;-73
2022/05/14 08:34:15;;;;;;;;;;;;;;;;;;5074950;28;19935;-69
2022/05/14 08:36:42;;;;;;;;;;;;;;;;;;5074916;28;19912;-68
2022/05/14 08:39:07;;;;;;;;;;;;;;;;;;5074423;28;19912;-69
2022/05/14 08:41:33;;;;;;;;;;;;;;;;;;5074806;28;20398;-73
2022/05/14 08:43:59;;;;;;;;;;;;;;;;;;5074649;28;19944;-72
2022/05/14 08:46:25;;;;;;;;;;;;;;;;;;5074717;28;19915;-71
2022/05/14 08:48:51;;;;;;;;;;;;;;;;;;5075507;28;19909;-70
2022/05/14 08:51:18;;;;;;;;;;;;;;;;;;5074322;28;20007;-73
2022/05/14 08:53:44;;;;;;;;;;;;;;;;;;5074368;28;19908;-71
2022/05/14 08:56:10;;;;;;;;;;;;;;;;;;5074417;28;19916;-71
2022/05/14 08:58:36;;;;;;;;;;;;;;;;;;5073923;28;19916;-72
2022/05/14 09:01:02;;;;;;;;;;;;;;;;;;5074260;28;19905;-75
2022/05/14 09:03:28;;;;;;;;;;;;;;;;;;5074337;28;19997;-73
2022/05/14 09:05:55;;;;;;;;;;;;;;;;;;5074364;28;20345;-75
2022/05/14 09:08:21;;;;;;;;;;;;;;;;;;5073971;28;19908;-73
2022/05/14 09:10:47;;;;;;;;;;;;;;;;;;5074001;28;19912;-70
2022/05/14 09:13:13;;;;;;;;;;;;;;;;;;5074133;28;19999;-69
2022/05/14 09:15:39;;;;;;;;;;;;;;;;;;5073988;28;20001;-71
2022/05/14 09:18:05;;;;;;;;;;;;;;;;;;5073461;28;20372;-73
2022/05/14 09:20:31;;;;;;;;;;;;;;;;;;5073692;28;19908;-75
2022/05/14 09:22:57;;;;;;;;;;;;;;;;;;5073995;28;20297;-74
2022/05/14 09:25:22;;;;;;;;;;;;;;;;;;5073726;28;19967;-74
2022/05/14 09:27:48;;;;;;;;;;;;;;;;;;5073509;28;19967;-75
2022/05/14 09:30:14;;;;;;;;;;;;;;;;;;5072988;28;19943;-74
2022/05/14 09:32:41;;;;;;;;;;;;;;;;;;5073361;28;19916;-76
2022/05/14 09:35:07;;;;;;;;;;;;;;;;;;5061810;28;19996;-72
2022/05/14 09:37:33;;;;;;;;;;;;;;;;;;5051716;28;19995;-72
2022/05/14 09:39:59;;;;;;;;;;;;;;;;;;5051433;28;19959;-73
2022/05/14 09:42:24;;;;;;;;;;;;;;;;;;5052040;28;20029;-73
2022/05/14 09:44:50;;;;;;;;;;;;;;;;;;5051886;28;19955;-75
2022/05/14 09:47:16;;;;;;;;;;;;;;;;;;5053452;28;19909;-73
2022/05/14 09:49:42;;;;;;;;;;;;;;;;;;5052826;28;20342;-73
2022/05/14 09:52:08;;;;;;;;;;;;;;;;;;5053437;28;19924;-74
2022/05/14 09:54:34;;;;;;;;;;;;;;;;;;5053238;28;20318;-73
2022/05/14 09:57:00;;;;;;;;;;;;;;;;;;5052899;28;20258;-73
2022/05/14 09:59:26;;;;;;;;;;;;;;;;;;5052439;28;19916;-74
2022/05/14 10:01:52;;;;;;;;;;;;;;;;;;5052832;28;19913;-74
2022/05/14 10:04:18;;;;;;;;;;;;;;;;;;5052825;28;20353;-73
2022/05/14 10:06:44;;;;;;;;;;;;;;;;;;5052732;28;19913;-73
2022/05/14 10:09:10;;;;;;;;;;;;;;;;;;5052306;28;19920;-73
2022/05/14 10:11:36;;;;;;;;;;;;;;;;;;5052628;28;19919;-74
2022/05/14 10:14:02;;;;;;;;;;;;;;;;;;5053833;28;19970;-73
2022/05/14 10:16:28;;;;;;;;;;;;;;;;;;5052686;28;19996;-73
2022/05/14 10:18:54;;;;;;;;;;;;;;;;;;5052090;28;19956;-73
2022/05/14 10:21:20;;;;;;;;;;;;;;;;;;5052542;28;19916;-73
2022/05/14 10:26:46;;;;;;;;;;;;;;;;;;5053777;28;19977;-73
2022/05/14 10:29:12;;;;;;;;;;;;;;;;;;5051115;28;19916;-73
2022/05/14 10:31:37;;;;;;;;;;;;;;;;;;5052215;28;20432;-73
2022/05/14 10:34:03;;;;;;;;;;;;;;;;;;5052383;28;20372;-73
2022/05/14 10:36:29;;;;;;;;;;;;;;;;;;5052348;28;19954;-73
2022/05/14 10:38:56;;;;;;;;;;;;;;;;;;5051697;28;19909;-72
2022/05/14 10:41:22;;;;;;;;;;;;;;;;;;5052284;28;19912;-73
2022/05/14 10:43:48;;;;;;;;;;;;;;;;;;5052127;28;19905;-72
2022/05/14 10:46:14;;;;;;;;;;;;;;;;;;5052294;28;19909;-72
2022/05/14 10:48:40;;;;;;;;;;;;;;;;;;5051725;28;19933;-74
2022/05/14 10:51:06;;;;;;;;;;;;;;;;;;5051970;28;19920;-72
2022/05/14 10:53:31;;;;;;;;;;;;;;;;;;5052051;28;19936;-72
2022/05/14 10:55:58;;;;;;;;;;;;;;;;;;5052097;28;19920;-73
2022/05/14 10:58:35;;;;;;;;;;;;;;;;;;5051777;28;19954;-74
2022/05/14 11:01:01;;;;;;;;;;;;;;;;;;5051935;28;19916;-72
2022/05/14 11:03:27;;;;;;;;;;;;;;;;;;5052003;28;19913;-73
2022/05/14 11:05:53;;;;;;;;;;;;;;;;;;5051886;28;19935;-72
2022/05/14 11:08:19;;;;;;;;;;;;;;;;;;5051935;28;20338;-73
2022/05/14 11:10:45;;;;;;;;;;;;;;;;;;5051453;28;19920;-73
2022/05/14 11:13:11;;;;;;;;;;;;;;;;;;5051973;28;19912;-73
2022/05/14 11:15:37;;;;;;;;;;;;;;;;;;5051843;28;20366;-73
2022/05/14 11:18:02;;;;;;;;;;;;;;;;;;5051802;28;20073;-73
2022/05/14 11:20:28;;;;;;;;;;;;;;;;;;5051438;28;19909;-73
2022/05/14 11:22:54;;;;;;;;;;;;;;;;;;5051843;28;19915;-71
2022/05/14 11:25:20;;;;;;;;;;;;;;;;;;5051868;28;19913;-72
2022/05/14 11:27:46;;;;;;;;;;;;;;;;;;5051473;28;20328;-73
2022/05/14 11:30:12;;;;;;;;;;;;;;;;;;5051269;28;20004;-74
2022/05/14 11:32:38;;;;;;;;;;;;;;;;;;5051683;28;19991;-74
2022/05/14 11:35:04;;;;;;;;;;;;;;;;;;5051669;28;19909;-72
2022/05/14 11:37:30;;;;;;;;;;;;;;;;;;5051608;28;19916;-72
2022/05/14 11:39:56;;;;;;;;;;;;;;;;;;5052499;28;19909;-72
2022/05/14 11:42:22;;;;;;;;;;;;;;;;;;5055548;28;19916;-73
2022/05/14 11:44:48;;;;;;;;;;;;;;;;;;5055352;28;20384;-72
2022/05/14 11:47:13;;;;;;;;;;;;;;;;;;5055352;28;20000;-73
2022/05/14 11:49:39;;;;;;;;;;;;;;;;;;5054823;28;19912;-73
2022/05/14 11:52:05;;;;;;;;;;;;;;;;;;5055228;28;19913;-72
2022/05/14 11:54:31;;;;;;;;;;;;;;;;;;5055229;28;19967;-73
2022/05/14 11:56:57;;;;;;;;;;;;;;;;;;5055146;28;19909;-73
2022/05/14 12:02:12;;;;;;;;;;;;;;;;;;5036424;28;20579;-72
2022/05/14 12:04:39;;;;;;;;;;;;;;;;;;5054565;28;19963;-72
2022/05/14 12:07:05;;;;;;;;;;;;;;;;;;5054554;28;19909;-73
2022/05/14 12:09:31;;;;;;;;;;;;;;;;;;5054078;28;19915;-74
2022/05/14 12:11:56;;;;;;;;;;;;;;;;;;5054393;28;19925;-73
2022/05/14 12:14:22;;;;;;;;;;;;;;;;;;5054495;28;19909;-74
2022/05/14 12:16:48;;;;;;;;;;;;;;;;;;5054774;28;19956;-73
2022/05/14 12:19:14;;;;;;;;;;;;;;;;;;5054516;28;19909;-74
2022/05/14 12:21:40;;;;;;;;;;;;;;;;;;5055068;28;19940;-73
2022/05/14 12:24:06;;;;;;;;;;;;;;;;;;5055199;28;19916;-73
2022/05/14 12:26:32;;;;;;;;;;;;;;;;;;5055254;28;20342;-74
2022/05/14 12:28:58;;;;;;;;;;;;;;;;;;5054283;28;19917;-73
2022/05/14 12:34:09;;;;;;;;;;;;;;;;;;5056396;28;19920;-73
2022/05/14 12:36:35;;;;;;;;;;;;;;;;;;5054937;28;19909;-73
2022/05/14 12:39:03;;;;;;;;;;;;;;;;;;5054276;28;19912;-73
2022/05/14 12:41:31;;;;;;;;;;;;;;;;;;5054801;28;20392;-71
2022/05/14 12:43:58;;;;;;;;;;;;;;;;;;5054682;28;19928;-72
2022/05/14 12:46:24;;;;;;;;;;;;;;;;;;5054634;28;19911;-73
2022/05/14 12:48:50;;;;;;;;;;;;;;;;;;5054045;28;19913;-73
2022/05/14 12:51:15;;;;;;;;;;;;;;;;;;5053677;28;19917;-72
2022/05/14 12:53:41;;;;;;;;;;;;;;;;;;5054381;28;19908;-72
2022/05/14 12:56:07;;;;;;;;;;;;;;;;;;5054516;28;20423;-72
2022/05/14 12:58:33;;;;;;;;;;;;;;;;;;5053844;28;20007;-72
2022/05/14 13:00:59;;;;;;;;;;;;;;;;;;5053966;28;19915;-72
2022/05/14 13:03:25;;;;;;;;;;;;;;;;;;5054029;28;20369;-72
2022/05/14 13:05:51;;;;;;;;;;;;;;;;;;5053871;28;19909;-72
2022/05/14 13:08:17;;;;;;;;;;;;;;;;;;5054018;28;19909;-72
2022/05/14 13:10:44;;;;;;;;;;;;;;;;;;5053555;28;19920;-72
2022/05/14 13:13:10;;;;;;;;;;;;;;;;;;5054142;28;20342;-72
2022/05/14 13:15:36;;;;;;;;;;;;;;;;;;5054056;28;19908;-72
2022/05/14 13:18:02;;;;;;;;;;;;;;;;;;5053948;28;19909;-72
2022/05/14 13:20:27;;;;;;;;;;;;;;;;;;5053365;28;19919;-72
2022/05/14 13:22:53;;;;;;;;;;;;;;;;;;5053802;28;20403;-71
2022/05/14 13:25:19;;;;;;;;;;;;;;;;;;5054085;28;19944;-72
2022/05/14 13:27:47;;;;;;;;;;;;;;;;;;5053684;28;19938;-72
2022/05/14 13:30:13;;;;;;;;;;;;;;;;;;5053144;28;19931;-72
2022/05/14 13:32:39;;;;;;;;;;;;;;;;;;5053901;28;20329;-72
2022/05/14 13:37:49;;;;;;;;;;;;;;;;;;5055058;28;19920;-72
2022/05/14 13:40:15;;;;;;;;;;;;;;;;;;5053102;28;19909;-72
2022/05/14 13:42:41;;;;;;;;;;;;;;;;;;5054723;28;19932;-72
2022/05/14 13:45:07;;;;;;;;;;;;;;;;;;5053202;28;19967;-72
2022/05/14 13:47:33;;;;;;;;;;;;;;;;;;5053119;28;19919;-72
2022/05/14 13:49:59;;;;;;;;;;;;;;;;;;5052480;28;19916;-72
2022/05/14 13:52:25;;;;;;;;;;;;;;;;;;5053092;28;20011;-72
2022/05/14 13:54:51;;;;;;;;;;;;;;;;;;5052884;28;19908;-72
2022/05/14 13:57:16;;;;;;;;;;;;;;;;;;5053017;28;20349;-72
2022/05/14 13:59:42;;;;;;;;;;;24.90;51.50;;;;;;5052813;28;19916;-73
2022/05/14 14:02:23;;;;;;;;;;;25.00;51.10;;;;;;5053206;28;19974;-74
2022/05/14 14:04:54;;;;;;;;;;;24.90;49.80;;;;;;5053420;28;20548;-73
2022/05/14 14:07:20;;;;;;;;;;;24.80;50.40;;;;;;5054251;28;19909;-73
2022/05/14 14:09:46;;;;;;;;;;;24.70;49.50;;;;;;5052473;28;20004;-73
2022/05/14 14:12:12;;;;;;;;;;;24.80;49.60;;;;;;5053052;28;19956;-73
2022/05/14 14:14:37;;;;;;;;;;;24.80;49.70;;;;;;5053024;28;19913;-74
2022/05/14 14:17:03;;;;;;;;;;;24.70;49.50;;;;;;5053041;28;19958;-74
2022/05/14 14:19:29;;;;;;;;;;;24.70;49.70;;;;;;5052433;28;19959;-74
2022/05/14 14:21:57;;;;;;;;;;;24.70;49.60;;;;;;5052771;28;19955;-74
2022/05/14 14:24:23;;;;;;;;;;;24.70;49.10;;;;;;5053002;28;19932;-73
2022/05/14 14:26:50;;;;;;;;;;;24.70;49.30;;;;;;5052745;28;19908;-73
2022/05/14 14:29:16;;;;;;;;;;;24.70;49.40;;;;;;5052013;28;19952;-74
2022/05/14 14:31:43;;;;;;;;;;;24.70;49.10;;;;;;5035466;28;23182;-74
2022/05/14 14:34:08;;;;;;;;;;;24.70;49.40;;;;;;5052520;28;19959;-73
2022/05/14 14:36:34;;;;;;;;;;;25.00;49.70;;;;;;5051697;28;19909;-73
2022/05/14 14:39:00;;;;;;;;;;;24.70;49.30;;;;;;5050333;28;19909;-73
2022/05/14 14:41:26;;;;;;;;;;;24.70;50.10;;;;;;5051603;28;19909;-73
2022/05/14 14:43:51;;;;;;;;;;;24.70;49.80;;;;;;5051605;28;20020;-73
2022/05/14 14:46:17;;;;;;;;;;;24.70;50.10;;;;;;5052382;28;20369;-73
2022/05/14 14:48:44;;;;;;;;;;;24.70;50.20;;;;;;5051898;28;19913;-74
2022/05/14 14:51:11;;;;;;;;;;;24.70;50.50;;;;;;5052454;28;19916;-74
2022/05/14 14:53:38;;;;;;;;;;;24.70;50.20;;;;;;5053384;28;20281;-72
2022/05/14 14:56:04;;;;;;;;;;;24.70;50.50;;;;;;5052065;28;19915;-72
2022/05/14 14:58:30;;;;;;;;;;;24.70;51.20;;;;;;5051717;28;20373;-71
2022/05/14 15:00:55;;;;;;;;;;;24.70;50.70;;;;;;5052385;28;19909;-72
2022/05/14 15:03:34;;;;;;;;;;;24.70;51.10;;;;;;5051646;28;20346;-73
2022/05/14 15:06:00;;;;;;;;;;;24.60;50.70;;;;;;5051145;28;19909;-72
2022/05/14 15:08:29;;;;;;;;;;;24.60;50.90;;;;;;5050940;28;19904;-73
2022/05/14 15:10:54;;;;;;;;;;;24.60;51.10;;;;;;5051703;28;20349;-74
2022/05/14 15:13:21;;;;;;;;;;;24.60;50.90;;;;;;5051932;28;19940;-74
2022/05/14 15:15:47;;;;;;;;;;;24.60;51.30;;;;;;5056227;28;19915;-71
2022/05/14 15:18:12;;;;;;;;;;;24.60;51.40;;;;;;5056205;28;19999;-73
2022/05/14 15:20:39;;;;;;;;;;;24.60;51.90;;;;;;5055775;28;19915;-73
2022/05/14 15:23:05;;;;;;;;;;;24.60;51.30;;;;;;5055772;28;19909;-73
2022/05/14 15:25:30;;;;;;;;;;;24.60;51.60;;;;;;5055881;28;20004;-73
2022/05/14 15:27:55;;;;;;;;;;;24.60;51.40;;;;;;5055539;28;20289;-72
2022/05/14 15:30:21;;;;;;;;;;;24.60;51.50;;;;;;5055280;28;19943;-74
2022/05/14 15:32:47;;;;;;;;;;;24.60;51.10;;;;;;5055904;28;19909;-73
2022/05/14 15:35:13;;;;;;;;;;;24.60;51.30;;;;;;5056086;28;19920;-72
2022/05/14 15:37:39;;;;;;;;;;;24.50;51.10;;;;;;5055597;28;20281;-73
2022/05/14 15:40:06;;;;;;;;;;;24.50;51.70;;;;;;5055044;28;20353;-73
2022/05/14 15:42:31;;;;;;;;;;;24.50;51.50;;;;;;5055465;28;19909;-74
2022/05/14 15:44:59;;;;;;;;;;;24.60;51.50;;;;;;5055788;28;19915;-73
2022/05/14 15:47:25;;;;;;;;;;;24.60;51.40;;;;;;5055767;28;19916;-73
2022/05/14 15:49:54;;;;;;;;;;;24.50;51.20;;;;;;5055391;28;19998;-73
2022/05/14 15:52:21;;;;;;;;;;;24.60;51.20;;;;;;5055619;28;19924;-74
2022/05/14 15:54:47;;;;;;;;;;;24.50;51.10;;;;;;5055646;28;20257;-74
2022/05/14 15:57:12;;;;;;;;;;;24.50;51.50;;;;;;5055582;28;19909;-74
2022/05/14 15:59:38;;;;;;;;;;;24.50;51.30;;;;;;5055053;28;19915;-72
2022/05/14 16:02:04;;;;;;;;;;;24.50;51.60;;;;;;5055475;28;20415;-72
2022/05/14 16:04:30;;;;;;;;;;;24.50;51.30;;;;;;5056873;28;20426;-73
2022/05/14 16:06:56;;;;;;;;;;;24.50;51.50;;;;;;5055506;28;19917;-73
2022/05/14 16:09:21;;;;;;;;;;;24.40;51.80;;;;;;5054860;28;19912;-72
2022/05/14 16:17:15;;;;;;;;;;;24.40;51.40;;;;;;5056506;28;19915;-73
2022/05/14 16:19:41;;;;;;;;;;;24.40;51.20;;;;;;5054661;28;19905;-74
2022/05/14 16:22:06;;;;;;;;;;;24.40;51.40;;;;;;5055221;28;19970;-70
2022/05/14 16:24:32;;;;;;;;;;;24.40;51.50;;;;;;5055118;28;20245;-72
2022/05/14 16:26:58;;;;;;;;;;;24.50;51.70;;;;;;5053785;28;20250;-76
2022/05/14 16:29:24;;;;;;;;;;;24.40;51.30;;;;;;5054278;28;19940;-74
2022/05/14 16:31:50;;;;;;;;;;;24.40;51.10;;;;;;5054893;28;19975;-73
2022/05/14 16:34:15;;;;;;;;;;;24.40;51.50;;;;;;5055009;28;19924;-73
2022/05/14 16:36:41;;;;;;;;;;;24.30;51.10;;;;;;5054946;28;19958;-73
2022/05/14 16:39:06;;;;;;;;;;;24.30;51.20;;;;;;5054342;28;19912;-73